sensor_id;sensor_type;location;lat;lon;timestamp;temperature;humidity
17092;DHT22;8661;45.700;4.880;2023-12-22T00:01:54;10.20;99.90
17092;DHT22;8661;45.700;4.880;2023-12-22T00:04:21;10.20;99.90
17092;DHT22;8661;45.700;4.880;2023-12-22T00:06:48;10.20;99.90
17092;DHT22;8661;45.700;4.880;2023-12-22T00:09:17;10.20;99.90
17092;DHT22;8661;45.700;4.880;2023-12-22T00:11:46;10.10;99.90
17092;DHT22;8661;45.700;4.880;2023-12-22T00:14:13;10.20;99.90
17092;DHT22;8661;45.700;4.880;2023-12-22T00:16:40;10.20;99.90
17092;DHT22;8661;45.700;4.880;2023-12-22T00:19:07;10.20;99.90
17092;DHT22;8661;45.700;4.880;2023-12-22T00:21:34;10.10;99.90
17092;DHT22;8661;45.700;4.880;2023-12-22T00:24:01;10.10;99.90
17092;DHT22;8661;45.700;4.880;2023-12-22T00:26:28;10.10;99.90
17092;DHT22;8661;45.700;4.880;2023-12-22T00:28:56;10.10;99.90
17092;DHT22;8661;45.700;4.880;2023-12-22T00:31:23;10.10;99.90
17092;DHT22;8661;45.700;4.880;2023-12-22T00:33:50;10.00;99.90
17092;DHT22;8661;45.700;4.880;2023-12-22T00:36:17;10.10;99.90
17092;DHT22;8661;45.700;4.880;2023-12-22T00:38:48;10.10;99.90
17092;DHT22;8661;45.700;4.880;2023-12-22T00:41:15;10.10;99.90
17092;DHT22;8661;45.700;4.880;2023-12-22T00:43:42;10.20;99.90
17092;DHT22;8661;45.700;4.880;2023-12-22T00:46:10;10.20;99.90
17092;DHT22;8661;45.700;4.880;2023-12-22T00:48:37;10.20;99.90
17092;DHT22;8661;45.700;4.880;2023-12-22T00:51:05;10.20;99.90
17092;DHT22;8661;45.700;4.880;2023-12-22T00:53:32;10.10;99.90
17092;DHT22;8661;45.700;4.880;2023-12-22T00:55:59;10.10;99.90
17092;DHT22;8661;45.700;4.880;2023-12-22T00:58:28;10.10;99.90
17092;DHT22;8661;45.700;4.880;2023-12-22T01:00:55;10.10;99.90
17092;DHT22;8661;45.700;4.880;2023-12-22T01:03:23;10.10;99.90
17092;DHT22;8661;45.700;4.880;2023-12-22T01:05:50;10.10;99.90
17092;DHT22;8661;45.700;4.880;2023-12-22T01:08:20;10.10;99.90
17092;DHT22;8661;45.700;4.880;2023-12-22T01:10:47;10.10;99.90
17092;DHT22;8661;45.700;4.880;2023-12-22T01:13:14;10.00;99.90
17092;DHT22;8661;45.700;4.880;2023-12-22T01:15:41;10.10;99.90
17092;DHT22;8661;45.700;4.880;2023-12-22T01:18:09;10.10;99.90
17092;DHT22;8661;45.700;4.880;2023-12-22T01:20:37;10.10;99.90
17092;DHT22;8661;45.700;4.880;2023-12-22T01:23:04;10.10;99.90
17092;DHT22;8661;45.700;4.880;2023-12-22T01:25:31;10.10;99.90
17092;DHT22;8661;45.700;4.880;2023-12-22T01:27:58;10.00;99.90
17092;DHT22;8661;45.700;4.880;2023-12-22T01:30:25;10.10;99.90
17092;DHT22;8661;45.700;4.880;2023-12-22T01:32:52;10.10;99.90
17092;DHT22;8661;45.700;4.880;2023-12-22T01:35:19;10.00;99.90
17092;DHT22;8661;45.700;4.880;2023-12-22T01:37:47;10.00;99.90
17092;DHT22;8661;45.700;4.880;2023-12-22T01:40:15;10.00;99.90
17092;DHT22;8661;45.700;4.880;2023-12-22T01:42:41;10.00;99.90
17092;DHT22;8661;45.700;4.880;2023-12-22T01:45:09;9.90;99.90
17092;DHT22;8661;45.700;4.880;2023-12-22T01:47:36;9.90;99.90
17092;DHT22;8661;45.700;4.880;2023-12-22T01:50:04;9.90;99.90
17092;DHT22;8661;45.700;4.880;2023-12-22T01:52:31;9.90;99.90
17092;DHT22;8661;45.700;4.880;2023-12-22T01:54:59;9.90;99.90
17092;DHT22;8661;45.700;4.880;2023-12-22T01:57:27;9.90;99.90
17092;DHT22;8661;45.700;4.880;2023-12-22T01:59:54;9.90;99.90
17092;DHT22;8661;45.700;4.880;2023-12-22T02:02:23;9.90;99.90
17092;DHT22;8661;45.700;4.880;2023-12-22T02:04:50;9.90;99.90
17092;DHT22;8661;45.700;4.880;2023-12-22T02:07:16;10.00;99.90
17092;DHT22;8661;45.700;4.880;2023-12-22T02:09:43;9.90;99.90
17092;DHT22;8661;45.700;4.880;2023-12-22T02:12:12;10.00;99.90
17092;DHT22;8661;45.700;4.880;2023-12-22T02:14:38;10.00;99.90
17092;DHT22;8661;45.700;4.880;2023-12-22T02:17:14;9.90;99.90
17092;DHT22;8661;45.700;4.880;2023-12-22T02:19:43;9.90;99.90
17092;DHT22;8661;45.700;4.880;2023-12-22T02:22:12;9.90;99.90
17092;DHT22;8661;45.700;4.880;2023-12-22T02:24:41;9.90;99.90
17092;DHT22;8661;45.700;4.880;2023-12-22T02:27:17;9.90;99.90
17092;DHT22;8661;45.700;4.880;2023-12-22T02:29:50;9.80;99.90
17092;DHT22;8661;45.700;4.880;2023-12-22T02:32:22;9.90;99.90
17092;DHT22;8661;45.700;4.880;2023-12-22T02:34:52;9.90;99.90
17092;DHT22;8661;45.700;4.880;2023-12-22T02:37:21;9.90;99.90
17092;DHT22;8661;45.700;4.880;2023-12-22T02:39:51;9.90;99.90
17092;DHT22;8661;45.700;4.880;2023-12-22T02:42:19;9.80;99.90
17092;DHT22;8661;45.700;4.880;2023-12-22T02:44:49;9.90;99.90
17092;DHT22;8661;45.700;4.880;2023-12-22T02:47:16;9.80;99.90
17092;DHT22;8661;45.700;4.880;2023-12-22T02:49:43;9.80;99.90
17092;DHT22;8661;45.700;4.880;2023-12-22T02:52:10;9.80;99.90
17092;DHT22;8661;45.700;4.880;2023-12-22T02:54:37;9.80;99.90
17092;DHT22;8661;45.700;4.880;2023-12-22T02:57:07;9.80;99.90
17092;DHT22;8661;45.700;4.880;2023-12-22T02:59:33;9.80;99.90
17092;DHT22;8661;45.700;4.880;2023-12-22T03:02:00;9.70;99.90
17092;DHT22;8661;45.700;4.880;2023-12-22T03:04:27;9.70;99.90
17092;DHT22;8661;45.700;4.880;2023-12-22T03:06:54;9.80;99.90
17092;DHT22;8661;45.700;4.880;2023-12-22T03:09:21;9.80;99.90
17092;DHT22;8661;45.700;4.880;2023-12-22T03:11:48;9.80;99.90
17092;DHT22;8661;45.700;4.880;2023-12-22T03:14:16;9.80;99.90
17092;DHT22;8661;45.700;4.880;2023-12-22T03:16:43;9.70;99.90
17092;DHT22;8661;45.700;4.880;2023-12-22T03:19:10;9.70;99.90
17092;DHT22;8661;45.700;4.880;2023-12-22T03:21:37;9.70;99.90
17092;DHT22;8661;45.700;4.880;2023-12-22T03:24:04;9.70;99.90
17092;DHT22;8661;45.700;4.880;2023-12-22T03:26:31;9.70;99.90
17092;DHT22;8661;45.700;4.880;2023-12-22T03:28:58;9.70;99.90
17092;DHT22;8661;45.700;4.880;2023-12-22T03:31:26;9.80;99.90
17092;DHT22;8661;45.700;4.880;2023-12-22T03:33:53;9.80;99.90
17092;DHT22;8661;45.700;4.880;2023-12-22T03:36:20;9.70;99.90
17092;DHT22;8661;45.700;4.880;2023-12-22T03:38:47;9.70;99.90
17092;DHT22;8661;45.700;4.880;2023-12-22T03:41:14;9.70;99.90
17092;DHT22;8661;45.700;4.880;2023-12-22T03:43:41;9.70;99.90
17092;DHT22;8661;45.700;4.880;2023-12-22T03:46:07;9.70;99.90
17092;DHT22;8661;45.700;4.880;2023-12-22T03:48:36;9.70;99.90
17092;DHT22;8661;45.700;4.880;2023-12-22T03:51:03;9.70;99.90
17092;DHT22;8661;45.700;4.880;2023-12-22T03:53:30;9.70;99.90
17092;DHT22;8661;45.700;4.880;2023-12-22T03:55:57;9.60;99.90
17092;DHT22;8661;45.700;4.880;2023-12-22T03:58:24;9.60;99.90
17092;DHT22;8661;45.700;4.880;2023-12-22T04:00:51;9.50;99.90
17092;DHT22;8661;45.700;4.880;2023-12-22T04:03:18;9.50;99.90
17092;DHT22;8661;45.700;4.880;2023-12-22T04:05:47;9.60;99.90
17092;DHT22;8661;45.700;4.880;2023-12-22T04:08:14;9.60;99.90
17092;DHT22;8661;45.700;4.880;2023-12-22T04:10:41;9.60;99.90
17092;DHT22;8661;45.700;4.880;2023-12-22T04:13:09;9.60;99.90
17092;DHT22;8661;45.700;4.880;2023-12-22T04:15:36;9.50;99.90
17092;DHT22;8661;45.700;4.880;2023-12-22T04:18:03;9.50;99.90
17092;DHT22;8661;45.700;4.880;2023-12-22T04:20:30;9.50;99.90
17092;DHT22;8661;45.700;4.880;2023-12-22T04:22:58;9.50;99.90
17092;DHT22;8661;45.700;4.880;2023-12-22T04:25:25;9.50;99.90
17092;DHT22;8661;45.700;4.880;2023-12-22T04:27:52;9.50;99.90
17092;DHT22;8661;45.700;4.880;2023-12-22T04:30:19;9.50;99.90
17092;DHT22;8661;45.700;4.880;2023-12-22T04:32:46;9.50;99.90
17092;DHT22;8661;45.700;4.880;2023-12-22T04:35:13;9.40;99.90
17092;DHT22;8661;45.700;4.880;2023-12-22T04:37:40;9.40;99.90
17092;DHT22;8661;45.700;4.880;2023-12-22T04:40:10;9.30;99.90
17092;DHT22;8661;45.700;4.880;2023-12-22T04:42:37;9.30;99.90
17092;DHT22;8661;45.700;4.880;2023-12-22T04:45:04;9.30;99.90
17092;DHT22;8661;45.700;4.880;2023-12-22T04:47:31;9.40;99.90
17092;DHT22;8661;45.700;4.880;2023-12-22T04:49:58;9.30;99.90
17092;DHT22;8661;45.700;4.880;2023-12-22T04:52:25;9.30;99.90
17092;DHT22;8661;45.700;4.880;2023-12-22T04:54:54;9.30;99.90
17092;DHT22;8661;45.700;4.880;2023-12-22T04:57:25;9.30;99.90
17092;DHT22;8661;45.700;4.880;2023-12-22T04:59:52;9.30;99.90
17092;DHT22;8661;45.700;4.880;2023-12-22T05:02:18;9.30;99.90
17092;DHT22;8661;45.700;4.880;2023-12-22T05:04:45;9.30;99.90
17092;DHT22;8661;45.700;4.880;2023-12-22T05:07:12;9.30;99.90
17092;DHT22;8661;45.700;4.880;2023-12-22T05:09:41;9.30;99.90
17092;DHT22;8661;45.700;4.880;2023-12-22T05:12:08;9.30;99.90
17092;DHT22;8661;45.700;4.880;2023-12-22T05:14:36;9.40;99.90
17092;DHT22;8661;45.700;4.880;2023-12-22T05:17:03;9.40;99.90
17092;DHT22;8661;45.700;4.880;2023-12-22T05:19:30;9.40;99.90
17092;DHT22;8661;45.700;4.880;2023-12-22T05:21:57;9.50;99.90
17092;DHT22;8661;45.700;4.880;2023-12-22T05:24:25;9.50;99.90
17092;DHT22;8661;45.700;4.880;2023-12-22T05:26:53;9.50;99.90
17092;DHT22;8661;45.700;4.880;2023-12-22T05:29:20;9.50;99.90
17092;DHT22;8661;45.700;4.880;2023-12-22T05:31:49;9.60;99.90
17092;DHT22;8661;45.700;4.880;2023-12-22T05:34:16;9.60;99.90
17092;DHT22;8661;45.700;4.880;2023-12-22T05:36:43;9.60;99.90
17092;DHT22;8661;45.700;4.880;2023-12-22T05:39:10;9.60;99.90
17092;DHT22;8661;45.700;4.880;2023-12-22T05:41:37;9.60;99.90
17092;DHT22;8661;45.700;4.880;2023-12-22T05:44:04;9.60;99.90
17092;DHT22;8661;45.700;4.880;2023-12-22T05:46:35;9.60;99.90
17092;DHT22;8661;45.700;4.880;2023-12-22T05:49:04;9.60;99.90
17092;DHT22;8661;45.700;4.880;2023-12-22T05:51:36;9.60;99.90
17092;DHT22;8661;45.700;4.880;2023-12-22T05:54:04;9.60;99.90
17092;DHT22;8661;45.700;4.880;2023-12-22T05:56:31;9.60;99.90
17092;DHT22;8661;45.700;4.880;2023-12-22T05:58:59;9.60;99.90
17092;DHT22;8661;45.700;4.880;2023-12-22T06:01:26;9.60;99.90
17092;DHT22;8661;45.700;4.880;2023-12-22T06:03:53;9.60;99.90
17092;DHT22;8661;45.700;4.880;2023-12-22T06:06:22;9.60;99.90
17092;DHT22;8661;45.700;4.880;2023-12-22T06:08:49;9.60;99.90
17092;DHT22;8661;45.700;4.880;2023-12-22T06:11:16;9.60;99.90
17092;DHT22;8661;45.700;4.880;2023-12-22T06:13:43;9.60;99.90
17092;DHT22;8661;45.700;4.880;2023-12-22T06:16:13;9.60;99.90
17092;DHT22;8661;45.700;4.880;2023-12-22T06:18:41;9.60;99.90
17092;DHT22;8661;45.700;4.880;2023-12-22T06:21:09;9.50;99.90
17092;DHT22;8661;45.700;4.880;2023-12-22T06:23:37;9.50;99.90
17092;DHT22;8661;45.700;4.880;2023-12-22T06:26:08;9.40;99.90
17092;DHT22;8661;45.700;4.880;2023-12-22T06:28:35;9.50;99.90
17092;DHT22;8661;45.700;4.880;2023-12-22T06:31:04;9.50;99.90
17092;DHT22;8661;45.700;4.880;2023-12-22T06:33:31;9.50;99.90
17092;DHT22;8661;45.700;4.880;2023-12-22T06:36:00;9.60;99.90
17092;DHT22;8661;45.700;4.880;2023-12-22T06:38:31;9.60;99.90
17092;DHT22;8661;45.700;4.880;2023-12-22T06:40:59;9.50;99.90
17092;DHT22;8661;45.700;4.880;2023-12-22T06:43:26;9.60;99.90
17092;DHT22;8661;45.700;4.880;2023-12-22T06:45:53;9.60;99.90
17092;DHT22;8661;45.700;4.880;2023-12-22T06:48:20;9.60;99.90
17092;DHT22;8661;45.700;4.880;2023-12-22T06:50:47;9.60;99.90
17092;DHT22;8661;45.700;4.880;2023-12-22T06:53:14;9.60;99.90
17092;DHT22;8661;45.700;4.880;2023-12-22T06:55:41;9.60;99.90
17092;DHT22;8661;45.700;4.880;2023-12-22T06:58:09;9.50;99.90
17092;DHT22;8661;45.700;4.880;2023-12-22T07:00:36;9.50;99.90
17092;DHT22;8661;45.700;4.880;2023-12-22T07:03:04;9.50;99.90
17092;DHT22;8661;45.700;4.880;2023-12-22T07:05:34;9.50;99.90
17092;DHT22;8661;45.700;4.880;2023-12-22T07:08:05;9.50;99.90
17092;DHT22;8661;45.700;4.880;2023-12-22T07:10:32;9.50;99.90
17092;DHT22;8661;45.700;4.880;2023-12-22T07:12:59;9.50;99.90
17092;DHT22;8661;45.700;4.880;2023-12-22T07:15:28;9.50;99.90
17092;DHT22;8661;45.700;4.880;2023-12-22T07:17:55;9.50;99.90
17092;DHT22;8661;45.700;4.880;2023-12-22T07:20:22;9.40;99.90
17092;DHT22;8661;45.700;4.880;2023-12-22T07:22:49;9.50;99.90
17092;DHT22;8661;45.700;4.880;2023-12-22T07:25:16;9.40;99.90
17092;DHT22;8661;45.700;4.880;2023-12-22T07:27:45;9.50;99.90
17092;DHT22;8661;45.700;4.880;2023-12-22T07:30:13;9.50;99.90
17092;DHT22;8661;45.700;4.880;2023-12-22T07:32:44;9.50;99.90
17092;DHT22;8661;45.700;4.880;2023-12-22T07:35:13;9.50;99.90
17092;DHT22;8661;45.700;4.880;2023-12-22T07:37:40;9.50;99.90
17092;DHT22;8661;45.700;4.880;2023-12-22T07:40:08;9.50;99.90
17092;DHT22;8661;45.700;4.880;2023-12-22T07:42:35;9.50;99.90
17092;DHT22;8661;45.700;4.880;2023-12-22T07:45:03;9.50;99.90
17092;DHT22;8661;45.700;4.880;2023-12-22T07:47:31;9.70;99.90
17092;DHT22;8661;45.700;4.880;2023-12-22T07:49:59;9.80;99.90
17092;DHT22;8661;45.700;4.880;2023-12-22T07:52:26;9.90;99.90
17092;DHT22;8661;45.700;4.880;2023-12-22T07:54:53;10.00;99.90
17092;DHT22;8661;45.700;4.880;2023-12-22T07:57:20;10.10;99.90
17092;DHT22;8661;45.700;4.880;2023-12-22T07:59:47;10.10;99.90
17092;DHT22;8661;45.700;4.880;2023-12-22T08:02:13;10.20;99.90
17092;DHT22;8661;45.700;4.880;2023-12-22T08:04:40;10.20;99.90
17092;DHT22;8661;45.700;4.880;2023-12-22T08:07:09;10.20;99.90
17092;DHT22;8661;45.700;4.880;2023-12-22T08:09:36;10.20;99.90
17092;DHT22;8661;45.700;4.880;2023-12-22T08:12:03;10.20;99.90
17092;DHT22;8661;45.700;4.880;2023-12-22T08:14:30;10.20;99.90
17092;DHT22;8661;45.700;4.880;2023-12-22T08:16:57;10.30;99.90
17092;DHT22;8661;45.700;4.880;2023-12-22T08:19:24;10.40;99.90
17092;DHT22;8661;45.700;4.880;2023-12-22T08:21:52;10.50;99.90
17092;DHT22;8661;45.700;4.880;2023-12-22T08:24:20;10.60;99.90
17092;DHT22;8661;45.700;4.880;2023-12-22T08:26:47;10.70;99.90
17092;DHT22;8661;45.700;4.880;2023-12-22T08:29:14;10.70;99.90
17092;DHT22;8661;45.700;4.880;2023-12-22T08:31:42;10.80;99.90
17092;DHT22;8661;45.700;4.880;2023-12-22T08:34:09;10.80;99.90
17092;DHT22;8661;45.700;4.880;2023-12-22T08:36:36;10.90;99.90
17092;DHT22;8661;45.700;4.880;2023-12-22T08:39:03;10.90;99.90
17092;DHT22;8661;45.700;4.880;2023-12-22T08:41:32;11.00;99.90
17092;DHT22;8661;45.700;4.880;2023-12-22T08:44:02;11.20;99.90
17092;DHT22;8661;45.700;4.880;2023-12-22T08:46:29;11.30;99.90
17092;DHT22;8661;45.700;4.880;2023-12-22T08:48:56;11.30;99.90
17092;DHT22;8661;45.700;4.880;2023-12-22T08:51:25;11.40;99.90
17092;DHT22;8661;45.700;4.880;2023-12-22T08:53:52;11.50;99.90
17092;DHT22;8661;45.700;4.880;2023-12-22T08:56:20;11.50;99.90
17092;DHT22;8661;45.700;4.880;2023-12-22T08:58:50;11.50;99.90
17092;DHT22;8661;45.700;4.880;2023-12-22T09:01:18;11.50;99.90
17092;DHT22;8661;45.700;4.880;2023-12-22T09:03:45;11.50;99.90
17092;DHT22;8661;45.700;4.880;2023-12-22T09:06:14;11.50;99.90
17092;DHT22;8661;45.700;4.880;2023-12-22T09:08:41;11.60;99.90
17092;DHT22;8661;45.700;4.880;2023-12-22T09:11:08;11.70;99.90
17092;DHT22;8661;45.700;4.880;2023-12-22T09:13:35;11.80;99.90
17092;DHT22;8661;45.700;4.880;2023-12-22T09:16:04;11.90;99.90
17092;DHT22;8661;45.700;4.880;2023-12-22T09:18:32;12.00;99.90
17092;DHT22;8661;45.700;4.880;2023-12-22T09:20:59;12.10;99.90
17092;DHT22;8661;45.700;4.880;2023-12-22T09:23:26;12.10;99.90
17092;DHT22;8661;45.700;4.880;2023-12-22T09:25:53;12.10;99.90
17092;DHT22;8661;45.700;4.880;2023-12-22T09:28:20;12.10;99.90
17092;DHT22;8661;45.700;4.880;2023-12-22T09:30:47;12.10;99.90
17092;DHT22;8661;45.700;4.880;2023-12-22T09:33:15;12.10;99.90
17092;DHT22;8661;45.700;4.880;2023-12-22T09:35:42;12.10;99.90
17092;DHT22;8661;45.700;4.880;2023-12-22T09:40:36;12.10;99.90
17092;DHT22;8661;45.700;4.880;2023-12-22T09:43:05;12.10;99.90
17092;DHT22;8661;45.700;4.880;2023-12-22T09:45:33;12.20;99.90
17092;DHT22;8661;45.700;4.880;2023-12-22T09:48:01;12.30;99.90
17092;DHT22;8661;45.700;4.880;2023-12-22T09:50:30;12.40;99.90
17092;DHT22;8661;45.700;4.880;2023-12-22T09:52:58;12.50;99.90
17092;DHT22;8661;45.700;4.880;2023-12-22T09:55:25;12.50;99.90
17092;DHT22;8661;45.700;4.880;2023-12-22T09:57:54;12.50;99.90
17092;DHT22;8661;45.700;4.880;2023-12-22T10:00:22;12.60;99.90
17092;DHT22;8661;45.700;4.880;2023-12-22T10:02:50;12.70;99.90
17092;DHT22;8661;45.700;4.880;2023-12-22T10:05:17;12.70;99.90
17092;DHT22;8661;45.700;4.880;2023-12-22T10:07:47;12.80;99.90
17092;DHT22;8661;45.700;4.880;2023-12-22T10:10:14;12.70;99.90
17092;DHT22;8661;45.700;4.880;2023-12-22T10:12:44;12.80;99.90
17092;DHT22;8661;45.700;4.880;2023-12-22T10:15:13;13.00;99.90
17092;DHT22;8661;45.700;4.880;2023-12-22T10:17:41;13.20;99.90
17092;DHT22;8661;45.700;4.880;2023-12-22T10:20:09;13.20;99.90
17092;DHT22;8661;45.700;4.880;2023-12-22T10:22:36;13.20;99.90
17092;DHT22;8661;45.700;4.880;2023-12-22T10:25:05;13.10;99.90
17092;DHT22;8661;45.700;4.880;2023-12-22T10:27:32;13.00;99.90
17092;DHT22;8661;45.700;4.880;2023-12-22T10:29:59;13.10;99.90
17092;DHT22;8661;45.700;4.880;2023-12-22T10:32:26;13.20;99.90
17092;DHT22;8661;45.700;4.880;2023-12-22T10:34:54;13.30;99.90
17092;DHT22;8661;45.700;4.880;2023-12-22T10:37:21;13.30;99.90
17092;DHT22;8661;45.700;4.880;2023-12-22T10:39:52;13.50;99.90
17092;DHT22;8661;45.700;4.880;2023-12-22T10:42:20;13.50;99.90
17092;DHT22;8661;45.700;4.880;2023-12-22T10:44:47;13.40;99.90
17092;DHT22;8661;45.700;4.880;2023-12-22T10:47:15;13.50;99.90
17092;DHT22;8661;45.700;4.880;2023-12-22T10:49:42;13.50;99.90
17092;DHT22;8661;45.700;4.880;2023-12-22T10:52:15;13.50;99.90
17092;DHT22;8661;45.700;4.880;2023-12-22T10:54:42;13.60;99.90
17092;DHT22;8661;45.700;4.880;2023-12-22T10:57:10;13.80;99.90
17092;DHT22;8661;45.700;4.880;2023-12-22T10:59:43;13.70;99.90
17092;DHT22;8661;45.700;4.880;2023-12-22T11:02:15;13.70;99.90
17092;DHT22;8661;45.700;4.880;2023-12-22T11:04:51;14.10;99.90
17092;DHT22;8661;45.700;4.880;2023-12-22T11:07:24;14.50;99.90
17092;DHT22;8661;45.700;4.880;2023-12-22T11:09:51;14.80;99.90
17092;DHT22;8661;45.700;4.880;2023-12-22T11:12:21;15.90;99.90
17092;DHT22;8661;45.700;4.880;2023-12-22T11:14:50;16.20;99.90
17092;DHT22;8661;45.700;4.880;2023-12-22T11:17:19;17.80;99.90
17092;DHT22;8661;45.700;4.880;2023-12-22T11:19:49;17.40;99.90
17092;DHT22;8661;45.700;4.880;2023-12-22T11:22:16;18.50;99.90
17092;DHT22;8661;45.700;4.880;2023-12-22T11:24:46;19.40;99.90
17092;DHT22;8661;45.700;4.880;2023-12-22T11:27:17;21.20;99.90
17092;DHT22;8661;45.700;4.880;2023-12-22T11:29:45;21.20;99.10
17092;DHT22;8661;45.700;4.880;2023-12-22T11:32:17;20.50;98.20
17092;DHT22;8661;45.700;4.880;2023-12-22T11:34:45;19.80;99.20
17092;DHT22;8661;45.700;4.880;2023-12-22T11:37:13;21.70;98.10
17092;DHT22;8661;45.700;4.880;2023-12-22T11:39:41;22.40;95.30
17092;DHT22;8661;45.700;4.880;2023-12-22T11:42:10;21.20;94.50
17092;DHT22;8661;45.700;4.880;2023-12-22T11:44:38;21.30;95.00
17092;DHT22;8661;45.700;4.880;2023-12-22T11:47:07;21.90;93.80
17092;DHT22;8661;45.700;4.880;2023-12-22T11:49:36;20.90;93.60
17092;DHT22;8661;45.700;4.880;2023-12-22T11:52:10;19.50;95.40
17092;DHT22;8661;45.700;4.880;2023-12-22T11:54:45;18.40;97.50
17092;DHT22;8661;45.700;4.880;2023-12-22T11:57:32;17.80;99.10
17092;DHT22;8661;45.700;4.880;2023-12-22T12:00:01;18.10;98.50
17092;DHT22;8661;45.700;4.880;2023-12-22T12:02:30;18.10;99.10
17092;DHT22;8661;45.700;4.880;2023-12-22T12:04:59;17.90;99.30
17092;DHT22;8661;45.700;4.880;2023-12-22T12:07:40;17.10;99.90
17092;DHT22;8661;45.700;4.880;2023-12-22T12:10:08;16.50;99.90
17092;DHT22;8661;45.700;4.880;2023-12-22T12:12:35;16.50;99.90
17092;DHT22;8661;45.700;4.880;2023-12-22T12:15:16;16.70;99.90
17092;DHT22;8661;45.700;4.880;2023-12-22T12:17:43;16.60;99.90
17092;DHT22;8661;45.700;4.880;2023-12-22T12:20:12;16.50;99.90
17092;DHT22;8661;45.700;4.880;2023-12-22T12:22:39;16.10;99.90
17092;DHT22;8661;45.700;4.880;2023-12-22T12:25:09;15.60;99.90
17092;DHT22;8661;45.700;4.880;2023-12-22T12:27:38;15.30;99.90
17092;DHT22;8661;45.700;4.880;2023-12-22T12:30:13;14.90;99.90
17092;DHT22;8661;45.700;4.880;2023-12-22T12:32:44;14.60;99.90
17092;DHT22;8661;45.700;4.880;2023-12-22T12:35:13;14.50;99.90
17092;DHT22;8661;45.700;4.880;2023-12-22T12:37:40;14.40;99.90
17092;DHT22;8661;45.700;4.880;2023-12-22T12:40:08;14.50;99.90
17092;DHT22;8661;45.700;4.880;2023-12-22T12:42:38;14.60;99.90
17092;DHT22;8661;45.700;4.880;2023-12-22T12:45:06;14.60;99.90
17092;DHT22;8661;45.700;4.880;2023-12-22T12:47:33;14.40;99.90
17092;DHT22;8661;45.700;4.880;2023-12-22T12:50:01;14.20;99.90
17092;DHT22;8661;45.700;4.880;2023-12-22T12:52:29;14.10;99.90
17092;DHT22;8661;45.700;4.880;2023-12-22T12:54:56;14.00;99.90
17092;DHT22;8661;45.700;4.880;2023-12-22T12:57:24;13.80;99.90
17092;DHT22;8661;45.700;4.880;2023-12-22T12:59:51;13.70;99.90
17092;DHT22;8661;45.700;4.880;2023-12-22T13:02:19;13.60;99.90
17092;DHT22;8661;45.700;4.880;2023-12-22T13:04:46;13.70;99.90
17092;DHT22;8661;45.700;4.880;2023-12-22T13:07:13;13.60;99.90
17092;DHT22;8661;45.700;4.880;2023-12-22T13:09:41;13.60;99.90
17092;DHT22;8661;45.700;4.880;2023-12-22T13:12:10;13.60;99.90
17092;DHT22;8661;45.700;4.880;2023-12-22T13:14:37;13.50;99.90
17092;DHT22;8661;45.700;4.880;2023-12-22T13:17:04;13.50;99.90
17092;DHT22;8661;45.700;4.880;2023-12-22T13:19:32;13.50;99.90
17092;DHT22;8661;45.700;4.880;2023-12-22T13:21:59;13.50;99.90
17092;DHT22;8661;45.700;4.880;2023-12-22T13:24:26;13.40;99.90
17092;DHT22;8661;45.700;4.880;2023-12-22T13:27:02;13.40;99.90
17092;DHT22;8661;45.700;4.880;2023-12-22T13:29:29;13.20;99.90
17092;DHT22;8661;45.700;4.880;2023-12-22T13:31:56;13.20;99.90
17092;DHT22;8661;45.700;4.880;2023-12-22T13:34:23;13.20;99.90
17092;DHT22;8661;45.700;4.880;2023-12-22T13:36:51;13.10;99.90
17092;DHT22;8661;45.700;4.880;2023-12-22T13:39:18;13.20;99.90
17092;DHT22;8661;45.700;4.880;2023-12-22T13:41:45;13.20;99.90
17092;DHT22;8661;45.700;4.880;2023-12-22T13:44:14;13.30;99.90
17092;DHT22;8661;45.700;4.880;2023-12-22T13:46:41;13.30;99.90
17092;DHT22;8661;45.700;4.880;2023-12-22T13:49:09;13.40;99.90
17092;DHT22;8661;45.700;4.880;2023-12-22T13:51:40;13.40;99.90
17092;DHT22;8661;45.700;4.880;2023-12-22T13:54:07;13.40;99.90
17092;DHT22;8661;45.700;4.880;2023-12-22T13:56:34;13.40;99.90
17092;DHT22;8661;45.700;4.880;2023-12-22T13:59:02;13.40;99.90
17092;DHT22;8661;45.700;4.880;2023-12-22T14:01:31;13.40;99.90
17092;DHT22;8661;45.700;4.880;2023-12-22T14:03:58;13.40;99.90
17092;DHT22;8661;45.700;4.880;2023-12-22T14:06:25;13.30;99.90
17092;DHT22;8661;45.700;4.880;2023-12-22T14:08:52;13.30;99.90
17092;DHT22;8661;45.700;4.880;2023-12-22T14:11:19;13.30;99.90
17092;DHT22;8661;45.700;4.880;2023-12-22T14:13:46;13.20;99.90
17092;DHT22;8661;45.700;4.880;2023-12-22T14:16:13;13.20;99.90
17092;DHT22;8661;45.700;4.880;2023-12-22T14:18:42;13.10;99.90
17092;DHT22;8661;45.700;4.880;2023-12-22T14:21:10;13.00;99.90
17092;DHT22;8661;45.700;4.880;2023-12-22T14:23:37;13.10;99.90
17092;DHT22;8661;45.700;4.880;2023-12-22T14:26:03;13.60;99.90
17092;DHT22;8661;45.700;4.880;2023-12-22T14:28:31;13.80;99.90
17092;DHT22;8661;45.700;4.880;2023-12-22T14:30:58;13.70;99.90
17092;DHT22;8661;45.700;4.880;2023-12-22T14:33:24;13.60;99.90
17092;DHT22;8661;45.700;4.880;2023-12-22T14:35:53;13.40;99.90
17092;DHT22;8661;45.700;4.880;2023-12-22T14:38:20;13.30;99.90
17092;DHT22;8661;45.700;4.880;2023-12-22T14:40:46;13.20;99.90
17092;DHT22;8661;45.700;4.880;2023-12-22T14:43:13;13.10;99.90
17092;DHT22;8661;45.700;4.880;2023-12-22T14:45:40;13.00;99.90
17092;DHT22;8661;45.700;4.880;2023-12-22T14:48:07;12.90;99.90
17092;DHT22;8661;45.700;4.880;2023-12-22T14:50:34;12.90;99.90
17092;DHT22;8661;45.700;4.880;2023-12-22T14:53:02;12.90;99.90
17092;DHT22;8661;45.700;4.880;2023-12-22T14:55:29;12.80;99.90
17092;DHT22;8661;45.700;4.880;2023-12-22T14:57:57;12.80;99.90
17092;DHT22;8661;45.700;4.880;2023-12-22T15:00:24;12.80;99.90
17092;DHT22;8661;45.700;4.880;2023-12-22T15:02:51;12.80;99.90
17092;DHT22;8661;45.700;4.880;2023-12-22T15:05:18;12.70;99.90
17092;DHT22;8661;45.700;4.880;2023-12-22T15:07:45;12.70;99.90
17092;DHT22;8661;45.700;4.880;2023-12-22T15:10:14;12.60;99.90
17092;DHT22;8661;45.700;4.880;2023-12-22T15:12:41;12.50;99.90
17092;DHT22;8661;45.700;4.880;2023-12-22T15:15:08;12.40;99.90
17092;DHT22;8661;45.700;4.880;2023-12-22T15:17:35;12.40;99.90
17092;DHT22;8661;45.700;4.880;2023-12-22T15:20:03;12.30;99.90
17092;DHT22;8661;45.700;4.880;2023-12-22T15:22:31;12.20;99.90
17092;DHT22;8661;45.700;4.880;2023-12-22T15:24:58;12.10;99.90
17092;DHT22;8661;45.700;4.880;2023-12-22T15:27:26;11.90;99.90
17092;DHT22;8661;45.700;4.880;2023-12-22T15:29:53;11.70;99.90
17092;DHT22;8661;45.700;4.880;2023-12-22T15:32:20;11.70;99.90
17092;DHT22;8661;45.700;4.880;2023-12-22T15:34:47;11.60;99.90
17092;DHT22;8661;45.700;4.880;2023-12-22T15:37:14;11.50;99.90
17092;DHT22;8661;45.700;4.880;2023-12-22T15:39:41;11.40;99.90
17092;DHT22;8661;45.700;4.880;2023-12-22T15:42:08;11.30;99.90
17092;DHT22;8661;45.700;4.880;2023-12-22T15:44:40;11.30;99.90
17092;DHT22;8661;45.700;4.880;2023-12-22T15:47:07;11.30;99.90
17092;DHT22;8661;45.700;4.880;2023-12-22T15:49:37;11.20;99.90
17092;DHT22;8661;45.700;4.880;2023-12-22T15:52:05;11.20;99.90
17092;DHT22;8661;45.700;4.880;2023-12-22T15:54:33;11.20;99.90
17092;DHT22;8661;45.700;4.880;2023-12-22T15:57:00;11.10;99.90
17092;DHT22;8661;45.700;4.880;2023-12-22T15:59:28;11.10;99.90